sensor_id;sensor_type;location;lat;lon;timestamp;P1;durP1;ratioP1;P2;durP2;ratioP2
55617;SDS011;41492;49.804;9.952;2023-06-14T00:01:09;5.07;;;4.65;;
55617;SDS011;41492;49.804;9.952;2023-06-14T00:03:38;5.72;;;4.32;;
55617;SDS011;41492;49.804;9.952;2023-06-14T00:06:05;5.53;;;4.30;;
55617;SDS011;41492;49.804;9.952;2023-06-14T00:08:31;4.18;;;3.78;;
55617;SDS011;41492;49.804;9.952;2023-06-14T00:10:58;4.68;;;4.28;;
55617;SDS011;41492;49.804;9.952;2023-06-14T00:13:26;4.15;;;3.75;;
55617;SDS011;41492;49.804;9.952;2023-06-14T00:15:53;4.53;;;4.13;;
55617;SDS011;41492;49.804;9.952;2023-06-14T00:18:20;5.22;;;4.47;;
55617;SDS011;41492;49.804;9.952;2023-06-14T00:20:49;4.97;;;4.47;;
55617;SDS011;41492;49.804;9.952;2023-06-14T00:23:16;5.00;;;4.50;;
55617;SDS011;41492;49.804;9.952;2023-06-14T00:25:43;4.65;;;4.13;;
55617;SDS011;41492;49.804;9.952;2023-06-14T00:28:10;4.82;;;4.43;;
55617;SDS011;41492;49.804;9.952;2023-06-14T00:30:38;4.63;;;4.22;;
55617;SDS011;41492;49.804;9.952;2023-06-14T00:33:04;6.03;;;4.50;;
55617;SDS011;41492;49.804;9.952;2023-06-14T00:35:31;5.28;;;4.30;;
55617;SDS011;41492;49.804;9.952;2023-06-14T00:37:57;7.18;;;4.32;;
55617;SDS011;41492;49.804;9.952;2023-06-14T00:40:24;4.75;;;4.35;;
55617;SDS011;41492;49.804;9.952;2023-06-14T00:42:51;5.25;;;4.75;;
55617;SDS011;41492;49.804;9.952;2023-06-14T00:45:17;698.88;;;502.48;;
55617;SDS011;41492;49.804;9.952;2023-06-14T00:47:45;637.10;;;365.75;;
55617;SDS011;41492;49.804;9.952;2023-06-14T00:50:12;4.35;;;3.95;;
55617;SDS011;41492;49.804;9.952;2023-06-14T00:52:39;6.38;;;4.32;;
55617;SDS011;41492;49.804;9.952;2023-06-14T00:55:06;4.97;;;4.57;;
55617;SDS011;41492;49.804;9.952;2023-06-14T00:57:33;4.32;;;3.92;;
55617;SDS011;41492;49.804;9.952;2023-06-14T01:00:02;9.85;;;4.30;;
55617;SDS011;41492;49.804;9.952;2023-06-14T01:02:29;4.38;;;4.00;;
55617;SDS011;41492;49.804;9.952;2023-06-14T01:04:57;5.28;;;4.57;;
55617;SDS011;41492;49.804;9.952;2023-06-14T01:07:28;4.30;;;3.90;;
55617;SDS011;41492;49.804;9.952;2023-06-14T01:10:06;5.00;;;4.03;;
55617;SDS011;41492;49.804;9.952;2023-06-14T01:12:39;4.47;;;4.07;;
55617;SDS011;41492;49.804;9.952;2023-06-14T01:15:11;3.95;;;3.60;;
55617;SDS011;41492;49.804;9.952;2023-06-14T01:17:39;4.55;;;4.20;;
55617;SDS011;41492;49.804;9.952;2023-06-14T01:20:10;4.50;;;4.10;;
55617;SDS011;41492;49.804;9.952;2023-06-14T01:22:45;4.15;;;3.85;;
55617;SDS011;41492;49.804;9.952;2023-06-14T01:25:16;4.45;;;4.00;;
55617;SDS011;41492;49.804;9.952;2023-06-14T01:27:48;4.63;;;4.15;;
55617;SDS011;41492;49.804;9.952;2023-06-14T01:30:15;4.22;;;3.90;;
55617;SDS011;41492;49.804;9.952;2023-06-14T01:32:43;6.22;;;4.15;;
55617;SDS011;41492;49.804;9.952;2023-06-14T01:35:10;4.72;;;4.25;;
55617;SDS011;41492;49.804;9.952;2023-06-14T01:37:36;4.57;;;4.10;;
55617;SDS011;41492;49.804;9.952;2023-06-14T01:40:05;4.72;;;4.28;;
55617;SDS011;41492;49.804;9.952;2023-06-14T01:42:33;4.50;;;4.05;;
55617;SDS011;41492;49.804;9.952;2023-06-14T01:45:00;4.53;;;4.13;;
55617;SDS011;41492;49.804;9.952;2023-06-14T01:47:27;4.20;;;3.80;;
55617;SDS011;41492;49.804;9.952;2023-06-14T01:49:53;4.50;;;4.13;;
55617;SDS011;41492;49.804;9.952;2023-06-14T01:52:20;6.50;;;4.50;;
55617;SDS011;41492;49.804;9.952;2023-06-14T01:54:47;4.63;;;4.22;;
55617;SDS011;41492;49.804;9.952;2023-06-14T01:57:16;5.60;;;4.65;;
55617;SDS011;41492;49.804;9.952;2023-06-14T01:59:42;5.13;;;4.57;;
55617;SDS011;41492;49.804;9.952;2023-06-14T02:02:14;4.50;;;4.10;;
55617;SDS011;41492;49.804;9.952;2023-06-14T02:04:41;3.90;;;3.60;;
55617;SDS011;41492;49.804;9.952;2023-06-14T02:07:08;4.47;;;4.07;;
55617;SDS011;41492;49.804;9.952;2023-06-14T02:09:34;4.82;;;4.43;;
55617;SDS011;41492;49.804;9.952;2023-06-14T02:12:01;4.50;;;3.88;;
55617;SDS011;41492;49.804;9.952;2023-06-14T02:14:29;7.85;;;4.25;;
55617;SDS011;41492;49.804;9.952;2023-06-14T02:16:55;9.98;;;4.50;;
55617;SDS011;41492;49.804;9.952;2023-06-14T02:19:22;4.13;;;3.70;;
55617;SDS011;41492;49.804;9.952;2023-06-14T02:21:48;4.55;;;4.15;;
55617;SDS011;41492;49.804;9.952;2023-06-14T02:24:15;4.38;;;3.97;;
55617;SDS011;41492;49.804;9.952;2023-06-14T02:26:42;4.00;;;3.70;;
55617;SDS011;41492;49.804;9.952;2023-06-14T02:29:08;4.18;;;3.60;;
55617;SDS011;41492;49.804;9.952;2023-06-14T02:31:40;4.32;;;3.90;;
55617;SDS011;41492;49.804;9.952;2023-06-14T02:34:06;4.35;;;3.92;;
55617;SDS011;41492;49.804;9.952;2023-06-14T02:36:34;4.47;;;4.07;;
55617;SDS011;41492;49.804;9.952;2023-06-14T02:39:06;3.90;;;3.60;;
55617;SDS011;41492;49.804;9.952;2023-06-14T02:41:34;3.70;;;3.40;;
55617;SDS011;41492;49.804;9.952;2023-06-14T02:44:00;4.78;;;4.32;;
55617;SDS011;41492;49.804;9.952;2023-06-14T02:46:27;6.47;;;4.40;;
55617;SDS011;41492;49.804;9.952;2023-06-14T02:48:55;4.40;;;4.00;;
55617;SDS011;41492;49.804;9.952;2023-06-14T02:51:22;4.68;;;4.28;;
55617;SDS011;41492;49.804;9.952;2023-06-14T02:53:48;7.35;;;3.80;;
55617;SDS011;41492;49.804;9.952;2023-06-14T02:56:15;4.40;;;3.83;;
55617;SDS011;41492;49.804;9.952;2023-06-14T02:58:42;3.92;;;3.63;;
55617;SDS011;41492;49.804;9.952;2023-06-14T03:01:09;4.43;;;4.03;;
55617;SDS011;41492;49.804;9.952;2023-06-14T03:03:37;4.57;;;4.20;;
55617;SDS011;41492;49.804;9.952;2023-06-14T03:06:05;4.85;;;4.03;;
55617;SDS011;41492;49.804;9.952;2023-06-14T03:08:33;4.50;;;4.10;;
55617;SDS011;41492;49.804;9.952;2023-06-14T03:11:04;5.28;;;4.43;;
55617;SDS011;41492;49.804;9.952;2023-06-14T03:13:31;4.25;;;3.92;;
55617;SDS011;41492;49.804;9.952;2023-06-14T03:15:58;4.60;;;4.15;;
55617;SDS011;41492;49.804;9.952;2023-06-14T03:18:27;4.65;;;4.18;;
55617;SDS011;41492;49.804;9.952;2023-06-14T03:20:54;5.35;;;3.90;;
55617;SDS011;41492;49.804;9.952;2023-06-14T03:23:23;4.28;;;3.95;;
55617;SDS011;41492;49.804;9.952;2023-06-14T03:25:50;6.38;;;4.20;;
55617;SDS011;41492;49.804;9.952;2023-06-14T03:28:17;4.13;;;3.72;;
55617;SDS011;41492;49.804;9.952;2023-06-14T03:30:43;3.87;;;3.57;;
55617;SDS011;41492;49.804;9.952;2023-06-14T03:33:10;4.43;;;4.03;;
55617;SDS011;41492;49.804;9.952;2023-06-14T03:35:36;4.43;;;4.03;;
55617;SDS011;41492;49.804;9.952;2023-06-14T03:38:03;5.50;;;3.75;;
55617;SDS011;41492;49.804;9.952;2023-06-14T03:40:31;4.55;;;4.15;;
55617;SDS011;41492;49.804;9.952;2023-06-14T03:42:57;3.75;;;3.45;;
55617;SDS011;41492;49.804;9.952;2023-06-14T03:45:24;5.85;;;4.28;;
55617;SDS011;41492;49.804;9.952;2023-06-14T03:47:50;4.53;;;4.07;;
55617;SDS011;41492;49.804;9.952;2023-06-14T03:50:17;3.70;;;3.40;;
55617;SDS011;41492;49.804;9.952;2023-06-14T03:52:44;4.43;;;4.03;;
55617;SDS011;41492;49.804;9.952;2023-06-14T03:55:11;4.95;;;4.03;;
55617;SDS011;41492;49.804;9.952;2023-06-14T03:57:40;4.38;;;4.07;;
55617;SDS011;41492;49.804;9.952;2023-06-14T04:00:07;4.20;;;3.83;;
55617;SDS011;41492;49.804;9.952;2023-06-14T04:02:36;4.20;;;3.90;;
55617;SDS011;41492;49.804;9.952;2023-06-14T04:05:02;4.50;;;3.97;;
55617;SDS011;41492;49.804;9.952;2023-06-14T04:07:30;4.00;;;3.63;;
55617;SDS011;41492;49.804;9.952;2023-06-14T04:09:57;4.22;;;3.83;;
55617;SDS011;41492;49.804;9.952;2023-06-14T04:12:23;4.68;;;4.28;;
55617;SDS011;41492;49.804;9.952;2023-06-14T04:14:51;4.38;;;3.83;;
55617;SDS011;41492;49.804;9.952;2023-06-14T04:17:18;4.30;;;3.80;;
55617;SDS011;41492;49.804;9.952;2023-06-14T04:19:44;4.60;;;4.20;;
55617;SDS011;41492;49.804;9.952;2023-06-14T04:22:11;4.70;;;4.00;;
55617;SDS011;41492;49.804;9.952;2023-06-14T04:24:37;5.18;;;3.85;;
55617;SDS011;41492;49.804;9.952;2023-06-14T04:27:04;5.13;;;4.60;;
55617;SDS011;41492;49.804;9.952;2023-06-14T04:29:31;4.10;;;3.80;;
55617;SDS011;41492;49.804;9.952;2023-06-14T04:31:59;5.85;;;4.05;;
55617;SDS011;41492;49.804;9.952;2023-06-14T04:34:26;3.90;;;3.60;;
55617;SDS011;41492;49.804;9.952;2023-06-14T04:36:54;3.78;;;3.47;;
55617;SDS011;41492;49.804;9.952;2023-06-14T04:39:21;3.78;;;3.45;;
55617;SDS011;41492;49.804;9.952;2023-06-14T04:41:49;4.10;;;3.78;;
55617;SDS011;41492;49.804;9.952;2023-06-14T04:44:17;5.15;;;4.28;;
55617;SDS011;41492;49.804;9.952;2023-06-14T04:46:44;4.20;;;3.83;;
55617;SDS011;41492;49.804;9.952;2023-06-14T04:49:13;4.45;;;4.07;;
55617;SDS011;41492;49.804;9.952;2023-06-14T04:51:40;4.18;;;3.78;;
55617;SDS011;41492;49.804;9.952;2023-06-14T04:54:07;4.43;;;4.03;;
55617;SDS011;41492;49.804;9.952;2023-06-14T04:56:35;4.40;;;4.00;;
55617;SDS011;41492;49.804;9.952;2023-06-14T04:59:02;4.55;;;3.95;;
55617;SDS011;41492;49.804;9.952;2023-06-14T05:01:29;3.80;;;3.50;;
55617;SDS011;41492;49.804;9.952;2023-06-14T05:03:56;4.95;;;4.45;;
55617;SDS011;41492;49.804;9.952;2023-06-14T05:06:24;4.20;;;3.80;;
55617;SDS011;41492;49.804;9.952;2023-06-14T05:08:52;4.40;;;3.75;;
55617;SDS011;41492;49.804;9.952;2023-06-14T05:11:19;5.95;;;4.35;;
55617;SDS011;41492;49.804;9.952;2023-06-14T05:13:45;4.07;;;3.67;;
55617;SDS011;41492;49.804;9.952;2023-06-14T05:16:12;4.32;;;3.92;;
55617;SDS011;41492;49.804;9.952;2023-06-14T05:18:40;4.50;;;3.97;;
55617;SDS011;41492;49.804;9.952;2023-06-14T05:21:07;4.35;;;4.03;;
55617;SDS011;41492;49.804;9.952;2023-06-14T05:23:35;5.60;;;4.30;;
55617;SDS011;41492;49.804;9.952;2023-06-14T05:26:01;4.63;;;3.92;;
55617;SDS011;41492;49.804;9.952;2023-06-14T05:28:29;6.05;;;4.10;;
55617;SDS011;41492;49.804;9.952;2023-06-14T05:30:56;5.38;;;4.18;;
55617;SDS011;41492;49.804;9.952;2023-06-14T05:33:23;4.32;;;4.03;;
55617;SDS011;41492;49.804;9.952;2023-06-14T05:35:50;4.07;;;3.67;;
55617;SDS011;41492;49.804;9.952;2023-06-14T05:38:16;6.15;;;4.82;;
55617;SDS011;41492;49.804;9.952;2023-06-14T05:40:44;8.02;;;4.65;;
55617;SDS011;41492;49.804;9.952;2023-06-14T05:43:11;4.32;;;3.92;;
55617;SDS011;41492;49.804;9.952;2023-06-14T05:45:37;4.07;;;3.78;;
55617;SDS011;41492;49.804;9.952;2023-06-14T05:48:04;4.35;;;3.95;;
55617;SDS011;41492;49.804;9.952;2023-06-14T05:50:31;3.97;;;3.67;;
55617;SDS011;41492;49.804;9.952;2023-06-14T05:52:57;4.03;;;3.72;;
55617;SDS011;41492;49.804;9.952;2023-06-14T05:55:24;6.05;;;4.38;;
55617;SDS011;41492;49.804;9.952;2023-06-14T05:57:52;4.60;;;4.10;;
55617;SDS011;41492;49.804;9.952;2023-06-14T06:00:19;8.38;;;4.65;;
55617;SDS011;41492;49.804;9.952;2023-06-14T06:02:46;5.88;;;4.38;;
55617;SDS011;41492;49.804;9.952;2023-06-14T06:05:13;5.22;;;4.40;;
55617;SDS011;41492;49.804;9.952;2023-06-14T06:07:40;4.32;;;4.03;;
55617;SDS011;41492;49.804;9.952;2023-06-14T06:10:09;5.15;;;4.00;;
55617;SDS011;41492;49.804;9.952;2023-06-14T06:12:36;4.57;;;4.20;;
55617;SDS011;41492;49.804;9.952;2023-06-14T06:15:04;5.97;;;4.57;;
55617;SDS011;41492;49.804;9.952;2023-06-14T06:17:32;4.07;;;3.70;;
55617;SDS011;41492;49.804;9.952;2023-06-14T06:19:59;4.53;;;3.83;;
55617;SDS011;41492;49.804;9.952;2023-06-14T06:22:26;4.18;;;3.78;;
55617;SDS011;41492;49.804;9.952;2023-06-14T06:24:52;5.95;;;4.55;;
55617;SDS011;41492;49.804;9.952;2023-06-14T06:27:19;4.72;;;3.88;;
55617;SDS011;41492;49.804;9.952;2023-06-14T06:29:45;4.97;;;4.47;;
55617;SDS011;41492;49.804;9.952;2023-06-14T06:32:14;5.00;;;4.28;;
55617;SDS011;41492;49.804;9.952;2023-06-14T06:34:41;5.03;;;4.32;;
55617;SDS011;41492;49.804;9.952;2023-06-14T06:37:08;5.22;;;3.90;;
55617;SDS011;41492;49.804;9.952;2023-06-14T06:39:34;5.70;;;3.80;;
55617;SDS011;41492;49.804;9.952;2023-06-14T06:42:01;4.07;;;3.70;;
55617;SDS011;41492;49.804;9.952;2023-06-14T06:44:27;6.10;;;4.47;;
55617;SDS011;41492;49.804;9.952;2023-06-14T06:46:54;5.10;;;4.03;;
55617;SDS011;41492;49.804;9.952;2023-06-14T06:49:22;5.25;;;3.85;;
55617;SDS011;41492;49.804;9.952;2023-06-14T06:51:58;4.90;;;4.20;;
55617;SDS011;41492;49.804;9.952;2023-06-14T06:54:25;4.55;;;4.15;;
55617;SDS011;41492;49.804;9.952;2023-06-14T06:56:52;4.65;;;4.07;;
55617;SDS011;41492;49.804;9.952;2023-06-14T06:59:19;4.80;;;3.67;;
55617;SDS011;41492;49.804;9.952;2023-06-14T07:01:45;4.88;;;4.38;;
55617;SDS011;41492;49.804;9.952;2023-06-14T07:04:12;4.78;;;3.88;;
55617;SDS011;41492;49.804;9.952;2023-06-14T07:06:41;4.15;;;3.65;;
55617;SDS011;41492;49.804;9.952;2023-06-14T07:09:08;4.03;;;3.63;;
55617;SDS011;41492;49.804;9.952;2023-06-14T07:11:37;4.03;;;3.72;;
55617;SDS011;41492;49.804;9.952;2023-06-14T07:14:04;7.55;;;3.72;;
55617;SDS011;41492;49.804;9.952;2023-06-14T07:16:31;4.10;;;3.70;;
55617;SDS011;41492;49.804;9.952;2023-06-14T07:18:57;4.22;;;3.83;;
55617;SDS011;41492;49.804;9.952;2023-06-14T07:21:25;6.55;;;4.25;;
55617;SDS011;41492;49.804;9.952;2023-06-14T07:23:53;4.40;;;4.00;;
55617;SDS011;41492;49.804;9.952;2023-06-14T07:26:20;4.47;;;4.07;;
55617;SDS011;41492;49.804;9.952;2023-06-14T07:28:47;4.40;;;4.00;;
55617;SDS011;41492;49.804;9.952;2023-06-14T07:31:14;5.07;;;3.80;;
55617;SDS011;41492;49.804;9.952;2023-06-14T07:33:41;6.47;;;4.07;;
55617;SDS011;41492;49.804;9.952;2023-06-14T07:36:08;5.80;;;4.13;;
55617;SDS011;41492;49.804;9.952;2023-06-14T07:38:35;4.68;;;4.20;;
55617;SDS011;41492;49.804;9.952;2023-06-14T07:41:03;4.88;;;4.38;;
55617;SDS011;41492;49.804;9.952;2023-06-14T07:43:29;6.32;;;3.95;;
55617;SDS011;41492;49.804;9.952;2023-06-14T07:45:56;4.18;;;3.78;;
55617;SDS011;41492;49.804;9.952;2023-06-14T07:48:23;5.03;;;4.15;;
55617;SDS011;41492;49.804;9.952;2023-06-14T07:50:49;4.60;;;4.18;;
55617;SDS011;41492;49.804;9.952;2023-06-14T07:53:16;4.00;;;3.70;;
55617;SDS011;41492;49.804;9.952;2023-06-14T07:55:42;3.63;;;3.35;;
55617;SDS011;41492;49.804;9.952;2023-06-14T07:58:10;4.57;;;3.78;;
55617;SDS011;41492;49.804;9.952;2023-06-14T08:00:37;5.85;;;4.18;;
55617;SDS011;41492;49.804;9.952;2023-06-14T08:03:03;5.50;;;3.75;;
55617;SDS011;41492;49.804;9.952;2023-06-14T08:05:30;3.90;;;3.60;;
55617;SDS011;41492;49.804;9.952;2023-06-14T08:07:56;4.15;;;3.78;;
55617;SDS011;41492;49.804;9.952;2023-06-14T08:10:23;4.28;;;3.88;;
55617;SDS011;41492;49.804;9.952;2023-06-14T08:12:50;6.00;;;4.25;;
55617;SDS011;41492;49.804;9.952;2023-06-14T08:15:18;4.97;;;4.43;;
55617;SDS011;41492;49.804;9.952;2023-06-14T08:17:45;5.55;;;4.05;;
55617;SDS011;41492;49.804;9.952;2023-06-14T08:20:12;4.80;;;4.32;;
55617;SDS011;41492;49.804;9.952;2023-06-14T08:22:41;4.72;;;3.67;;
55617;SDS011;41492;49.804;9.952;2023-06-14T08:25:08;4.15;;;3.85;;
55617;SDS011;41492;49.804;9.952;2023-06-14T08:27:36;5.38;;;4.10;;
55617;SDS011;41492;49.804;9.952;2023-06-14T08:30:02;4.43;;;3.72;;
55617;SDS011;41492;49.804;9.952;2023-06-14T08:32:31;3.63;;;3.33;;
55617;SDS011;41492;49.804;9.952;2023-06-14T08:34:57;4.05;;;3.75;;
55617;SDS011;41492;49.804;9.952;2023-06-14T08:37:24;3.72;;;3.40;;
55617;SDS011;41492;49.804;9.952;2023-06-14T08:39:51;4.20;;;3.80;;
55617;SDS011;41492;49.804;9.952;2023-06-14T08:42:18;3.38;;;3.08;;
55617;SDS011;41492;49.804;9.952;2023-06-14T08:44:45;4.68;;;3.70;;
55617;SDS011;41492;49.804;9.952;2023-06-14T08:47:11;3.97;;;3.67;;
55617;SDS011;41492;49.804;9.952;2023-06-14T08:49:40;4.80;;;3.70;;
55617;SDS011;41492;49.804;9.952;2023-06-14T08:52:08;3.65;;;3.30;;
55617;SDS011;41492;49.804;9.952;2023-06-14T08:54:37;4.13;;;3.72;;
55617;SDS011;41492;49.804;9.952;2023-06-14T08:57:09;3.92;;;3.50;;
55617;SDS011;41492;49.804;9.952;2023-06-14T08:59:37;4.00;;;3.70;;
55617;SDS011;41492;49.804;9.952;2023-06-14T09:02:10;5.20;;;4.40;;
55617;SDS011;41492;49.804;9.952;2023-06-14T09:04:41;4.05;;;3.75;;
55617;SDS011;41492;49.804;9.952;2023-06-14T09:07:08;3.75;;;3.45;;
55617;SDS011;41492;49.804;9.952;2023-06-14T09:09:38;3.60;;;3.30;;
55617;SDS011;41492;49.804;9.952;2023-06-14T09:12:06;3.80;;;3.50;;
55617;SDS011;41492;49.804;9.952;2023-06-14T09:14:35;4.30;;;3.90;;
55617;SDS011;41492;49.804;9.952;2023-06-14T09:17:03;3.63;;;3.33;;
55617;SDS011;41492;49.804;9.952;2023-06-14T09:19:30;3.80;;;3.50;;
55617;SDS011;41492;49.804;9.952;2023-06-14T09:21:58;4.32;;;3.30;;
55617;SDS011;41492;49.804;9.952;2023-06-14T09:24:25;3.78;;;3.38;;
55617;SDS011;41492;49.804;9.952;2023-06-14T09:26:52;5.70;;;4.00;;
55617;SDS011;41492;49.804;9.952;2023-06-14T09:29:19;4.18;;;3.67;;
55617;SDS011;41492;49.804;9.952;2023-06-14T09:31:46;4.75;;;4.18;;
55617;SDS011;41492;49.804;9.952;2023-06-14T09:34:13;4.30;;;3.70;;
55617;SDS011;41492;49.804;9.952;2023-06-14T09:36:40;3.28;;;3.08;;
55617;SDS011;41492;49.804;9.952;2023-06-14T09:39:09;3.63;;;3.40;;
55617;SDS011;41492;49.804;9.952;2023-06-14T09:41:36;3.75;;;3.45;;
55617;SDS011;41492;49.804;9.952;2023-06-14T09:44:04;3.63;;;3.33;;
55617;SDS011;41492;49.804;9.952;2023-06-14T09:46:32;4.20;;;3.90;;
55617;SDS011;41492;49.804;9.952;2023-06-14T09:49:00;3.58;;;3.10;;
55617;SDS011;41492;49.804;9.952;2023-06-14T09:51:27;4.45;;;3.22;;
55617;SDS011;41492;49.804;9.952;2023-06-14T09:53:55;7.57;;;3.97;;
55617;SDS011;41492;49.804;9.952;2023-06-14T09:56:27;3.50;;;3.30;;
55617;SDS011;41492;49.804;9.952;2023-06-14T09:58:55;4.32;;;3.80;;
55617;SDS011;41492;49.804;9.952;2023-06-14T10:01:22;4.20;;;3.75;;
55617;SDS011;41492;49.804;9.952;2023-06-14T10:03:53;3.65;;;3.35;;
55617;SDS011;41492;49.804;9.952;2023-06-14T10:06:22;4.28;;;3.90;;
55617;SDS011;41492;49.804;9.952;2023-06-14T10:08:50;4.07;;;3.60;;
55617;SDS011;41492;49.804;9.952;2023-06-14T10:11:17;4.13;;;3.75;;
55617;SDS011;41492;49.804;9.952;2023-06-14T10:13:45;4.97;;;3.75;;
55617;SDS011;41492;49.804;9.952;2023-06-14T10:16:12;4.50;;;3.75;;
55617;SDS011;41492;49.804;9.952;2023-06-14T10:18:43;3.80;;;3.50;;
55617;SDS011;41492;49.804;9.952;2023-06-14T10:21:18;4.07;;;3.67;;
55617;SDS011;41492;49.804;9.952;2023-06-14T10:23:48;4.57;;;3.80;;
55617;SDS011;41492;49.804;9.952;2023-06-14T10:26:19;3.28;;;3.08;;
55617;SDS011;41492;49.804;9.952;2023-06-14T10:28:59;6.88;;;3.05;;
55617;SDS011;41492;49.804;9.952;2023-06-14T10:31:41;3.83;;;3.53;;
55617;SDS011;41492;49.804;9.952;2023-06-14T10:34:10;6.72;;;3.55;;
55617;SDS011;41492;49.804;9.952;2023-06-14T10:36:37;3.90;;;3.50;;
55617;SDS011;41492;49.804;9.952;2023-06-14T10:39:06;4.13;;;3.72;;
55617;SDS011;41492;49.804;9.952;2023-06-14T10:41:34;3.70;;;3.40;;
55617;SDS011;41492;49.804;9.952;2023-06-14T10:47:21;4.20;;;3.88;;
55617;SDS011;41492;49.804;9.952;2023-06-14T10:49:51;611.33;;;337.42;;
55617;SDS011;41492;49.804;9.952;2023-06-14T10:52:20;560.08;;;354.55;;
55617;SDS011;41492;49.804;9.952;2023-06-14T10:57:43;3.58;;;3.28;;
55617;SDS011;41492;49.804;9.952;2023-06-14T11:00:13;5.53;;;3.78;;
55617;SDS011;41492;49.804;9.952;2023-06-14T11:05:51;699.75;;;485.38;;
55617;SDS011;41492;49.804;9.952;2023-06-14T11:08:26;713.80;;;530.40;;
55617;SDS011;41492;49.804;9.952;2023-06-14T11:10:55;731.85;;;581.22;;
55617;SDS011;41492;49.804;9.952;2023-06-14T11:13:25;731.83;;;576.53;;
55617;SDS011;41492;49.804;9.952;2023-06-14T11:15:53;736.05;;;592.78;;
55617;SDS011;41492;49.804;9.952;2023-06-14T11:18:22;727.28;;;565.42;;
55617;SDS011;41492;49.804;9.952;2023-06-14T11:20:51;730.38;;;580.83;;
55617;SDS011;41492;49.804;9.952;2023-06-14T11:23:18;732.03;;;587.92;;
55617;SDS011;41492;49.804;9.952;2023-06-14T11:25:49;734.90;;;593.90;;
55617;SDS011;41492;49.804;9.952;2023-06-14T11:28:16;736.15;;;601.10;;
55617;SDS011;41492;49.804;9.952;2023-06-14T11:30:44;733.10;;;589.30;;
55617;SDS011;41492;49.804;9.952;2023-06-14T11:33:11;736.50;;;591.53;;
55617;SDS011;41492;49.804;9.952;2023-06-14T11:35:37;737.97;;;603.63;;
55617;SDS011;41492;49.804;9.952;2023-06-14T11:38:05;737.20;;;601.13;;
55617;SDS011;41492;49.804;9.952;2023-06-14T11:40:32;739.60;;;610.47;;
55617;SDS011;41492;49.804;9.952;2023-06-14T11:42:59;726.72;;;565.20;;
55617;SDS011;41492;49.804;9.952;2023-06-14T11:45:26;739.92;;;611.08;;
55617;SDS011;41492;49.804;9.952;2023-06-14T11:47:54;730.22;;;578.45;;
55617;SDS011;41492;49.804;9.952;2023-06-14T11:50:22;743.33;;;622.00;;
55617;SDS011;41492;49.804;9.952;2023-06-14T11:52:52;735.55;;;590.72;;
55617;SDS011;41492;49.804;9.952;2023-06-14T11:55:20;734.35;;;590.47;;
55617;SDS011;41492;49.804;9.952;2023-06-14T11:57:47;739.05;;;609.30;;
55617;SDS011;41492;49.804;9.952;2023-06-14T12:00:14;738.08;;;603.10;;
55617;SDS011;41492;49.804;9.952;2023-06-14T12:02:41;734.22;;;583.60;;
55617;SDS011;41492;49.804;9.952;2023-06-14T12:05:08;742.17;;;621.47;;
55617;SDS011;41492;49.804;9.952;2023-06-14T12:07:36;737.97;;;594.83;;
55617;SDS011;41492;49.804;9.952;2023-06-14T12:10:05;744.42;;;632.35;;
55617;SDS011;41492;49.804;9.952;2023-06-14T12:12:36;744.70;;;626.28;;
55617;SDS011;41492;49.804;9.952;2023-06-14T12:15:04;738.63;;;594.08;;
55617;SDS011;41492;49.804;9.952;2023-06-14T12:17:32;744.58;;;632.03;;
55617;SDS011;41492;49.804;9.952;2023-06-14T12:20:04;745.05;;;613.85;;
55617;SDS011;41492;49.804;9.952;2023-06-14T12:22:36;745.08;;;623.70;;
55617;SDS011;41492;49.804;9.952;2023-06-14T12:25:02;735.17;;;589.55;;
55617;SDS011;41492;49.804;9.952;2023-06-14T12:27:29;744.53;;;627.42;;
55617;SDS011;41492;49.804;9.952;2023-06-14T12:30:01;739.28;;;609.55;;
55617;SDS011;41492;49.804;9.952;2023-06-14T12:32:28;739.72;;;616.75;;
55617;SDS011;41492;49.804;9.952;2023-06-14T12:34:55;735.45;;;596.88;;
55617;SDS011;41492;49.804;9.952;2023-06-14T12:37:22;743.80;;;627.13;;
55617;SDS011;41492;49.804;9.952;2023-06-14T12:39:48;734.75;;;588.72;;
55617;SDS011;41492;49.804;9.952;2023-06-14T12:42:16;740.85;;;608.55;;
55617;SDS011;41492;49.804;9.952;2023-06-14T12:44:42;749.58;;;643.28;;
55617;SDS011;41492;49.804;9.952;2023-06-14T12:47:10;740.17;;;606.13;;
55617;SDS011;41492;49.804;9.952;2023-06-14T12:49:38;741.45;;;614.78;;
55617;SDS011;41492;49.804;9.952;2023-06-14T12:52:05;740.13;;;611.80;;
55617;SDS011;41492;49.804;9.952;2023-06-14T12:54:32;744.58;;;626.70;;
55617;SDS011;41492;49.804;9.952;2023-06-14T12:56:59;746.45;;;640.83;;
55617;SDS011;41492;49.804;9.952;2023-06-14T12:59:25;735.67;;;597.42;;
55617;SDS011;41492;49.804;9.952;2023-06-14T13:01:57;743.75;;;624.30;;
55617;SDS011;41492;49.804;9.952;2023-06-14T13:04:26;738.30;;;616.25;;
55617;SDS011;41492;49.804;9.952;2023-06-14T13:06:53;742.15;;;632.83;;
55617;SDS011;41492;49.804;9.952;2023-06-14T13:09:19;735.88;;;604.60;;
55617;SDS011;41492;49.804;9.952;2023-06-14T13:11:46;736.00;;;600.83;;
55617;SDS011;41492;49.804;9.952;2023-06-14T13:14:12;735.10;;;602.00;;
55617;SDS011;41492;49.804;9.952;2023-06-14T13:16:39;731.13;;;584.47;;
55617;SDS011;41492;49.804;9.952;2023-06-14T13:19:05;743.05;;;627.55;;
55617;SDS011;41492;49.804;9.952;2023-06-14T13:21:33;744.10;;;634.88;;
55617;SDS011;41492;49.804;9.952;2023-06-14T13:24:00;731.63;;;591.35;;
55617;SDS011;41492;49.804;9.952;2023-06-14T13:26:26;738.67;;;609.47;;
55617;SDS011;41492;49.804;9.952;2023-06-14T13:28:53;736.92;;;607.53;;
55617;SDS011;41492;49.804;9.952;2023-06-14T13:31:19;747.05;;;643.05;;
55617;SDS011;41492;49.804;9.952;2023-06-14T13:33:46;744.60;;;633.65;;
55617;SDS011;41492;49.804;9.952;2023-06-14T13:36:13;731.30;;;581.00;;
55617;SDS011;41492;49.804;9.952;2023-06-14T13:38:40;730.95;;;590.75;;
55617;SDS011;41492;49.804;9.952;2023-06-14T13:41:07;729.05;;;579.90;;
55617;SDS011;41492;49.804;9.952;2023-06-14T13:43:34;739.65;;;616.20;;
55617;SDS011;41492;49.804;9.952;2023-06-14T13:46:00;744.88;;;638.47;;
55617;SDS011;41492;49.804;9.952;2023-06-14T13:48:27;737.85;;;611.42;;
55617;SDS011;41492;49.804;9.952;2023-06-14T13:50:53;731.70;;;594.38;;
55617;SDS011;41492;49.804;9.952;2023-06-14T13:53:20;735.67;;;605.55;;
55617;SDS011;41492;49.804;9.952;2023-06-14T13:55:48;733.53;;;596.55;;
55617;SDS011;41492;49.804;9.952;2023-06-14T13:58:14;740.53;;;630.75;;
55617;SDS011;41492;49.804;9.952;2023-06-14T14:00:41;736.22;;;608.15;;
55617;SDS011;41492;49.804;9.952;2023-06-14T14:03:07;743.83;;;636.35;;
55617;SDS011;41492;49.804;9.952;2023-06-14T14:05:35;744.08;;;640.15;;
55617;SDS011;41492;49.804;9.952;2023-06-14T14:08:01;743.22;;;631.03;;
55617;SDS011;41492;49.804;9.952;2023-06-14T14:10:29;741.45;;;620.22;;
55617;SDS011;41492;49.804;9.952;2023-06-14T14:12:57;740.80;;;629.30;;
55617;SDS011;41492;49.804;9.952;2023-06-14T14:15:24;740.47;;;626.22;;
55617;SDS011;41492;49.804;9.952;2023-06-14T14:17:51;740.72;;;635.05;;
55617;SDS011;41492;49.804;9.952;2023-06-14T14:20:19;737.00;;;610.28;;
55617;SDS011;41492;49.804;9.952;2023-06-14T14:22:45;741.53;;;625.42;;
55617;SDS011;41492;49.804;9.952;2023-06-14T14:25:12;742.60;;;636.00;;
55617;SDS011;41492;49.804;9.952;2023-06-14T14:27:39;747.13;;;644.72;;
55617;SDS011;41492;49.804;9.952;2023-06-14T14:30:08;740.03;;;627.17;;
55617;SDS011;41492;49.804;9.952;2023-06-14T14:32:34;746.55;;;644.50;;
55617;SDS011;41492;49.804;9.952;2023-06-14T14:35:01;743.10;;;629.83;;
55617;SDS011;41492;49.804;9.952;2023-06-14T14:37:28;746.78;;;646.33;;
55617;SDS011;41492;49.804;9.952;2023-06-14T14:39:54;742.90;;;634.03;;
55617;SDS011;41492;49.804;9.952;2023-06-14T14:42:21;745.75;;;646.30;;
55617;SDS011;41492;49.804;9.952;2023-06-14T14:44:47;745.25;;;640.40;;